Time;durP1;ratioP1;P1;durP2;ratioP2;P2;SDS_P1;SDS_P2;PMS_P1;PMS_P2;Temp;Humidity;BMP_temperature;BMP_pressure;BME280_temperature;BME280_humidity;BME280_pressure;Samples;Min_cycle;Max_cycle;Signal;HPM_P1;HPM_P2
2022/03/15 00:01:10;;;;;;;9.38;6.97;;;;;;;;;;4980661;28;20454;-71
2022/03/15 00:03:36;;;;;;;10.77;6.57;;;;;;;;;;4981176;28;20030;-72
2022/03/15 00:06:02;;;;;;;16.70;7.65;;;;;;;;;;4989402;28;20042;-69
2022/03/15 00:08:28;;;;;;;12.18;7.57;;;;;;;;;;4984168;28;20038;-67
2022/03/15 00:10:58;;;;;;;10.82;7.78;;;;;;;;;;4985036;28;20042;-72
2022/03/15 00:13:28;;;;;;;11.50;7.95;;;;;;;;;;4984653;28;20578;-71
2022/03/15 00:15:54;;;;;;;11.32;7.25;;;;;;;;;;4985124;28;20038;-72
2022/03/15 00:18:21;;;;;;;13.85;8.15;;;;;;;;;;4989998;28;20971;-71
2022/03/15 00:20:47;;;;;;;21.58;8.57;;;;;;;;;;4992833;28;20038;-72
2022/03/15 00:23:12;;;;;;;17.38;9.23;;;;;;;;;;4984645;28;20230;-71
2022/03/15 00:25:38;;;;;;;15.68;9.23;;;;;;;;;;4984870;28;20110;-71
2022/03/15 00:28:04;;;;;;;14.18;9.13;;;;;;;;;;4990463;28;20498;-70
2022/03/15 00:30:30;;;;;;;15.95;8.60;;;;;;;;;;4984447;28;20034;-68
2022/03/15 00:32:55;;;;;;;16.10;10.07;;;;;;;;;;4984698;28;20045;-69
2022/03/15 00:35:24;;;;;;;13.85;8.90;;;;;;;;;;4982592;28;20133;-67
2022/03/15 00:37:51;;;;;;;14.30;8.82;;;;;;;;;;4984624;28;20041;-67
2022/03/15 00:40:19;;;;;;;20.50;10.27;;;;;;;;;;4966038;28;20081;-71
2022/03/15 00:42:51;;;;;;;15.52;8.25;;;;;;;;;;4984438;28;21027;-70
2022/03/15 00:45:23;;;;;;;16.25;9.70;;;;;;;;;;4984532;28;20031;-71
2022/03/15 00:47:52;;;;;;;13.63;9.05;;;;;;;;;;4984300;28;20057;-71
2022/03/15 00:50:18;;;;;;;16.90;9.48;;;;;;;;;;4966060;28;20057;-71
2022/03/15 00:52:44;;;;;;;17.42;9.63;;;;;;;;;;4984250;28;20034;-67
2022/03/15 00:55:10;;;;;;;12.55;9.20;;;;;;;;;;4983822;28;20436;-71
2022/03/15 00:57:35;;;;;;;14.45;8.88;;;;;;;;;;4982165;28;20037;-68
2022/03/15 01:00:01;;;;;;;15.75;8.55;;;;;;;;;;4984152;28;20095;-67
2022/03/15 01:02:27;;;;;;;14.00;8.88;;;;;;;;;;4982835;28;20105;-70
2022/03/15 01:04:52;;;;;;;14.00;8.90;;;;;;;;;;4983420;28;20042;-69
2022/03/15 01:07:18;;;;;;;15.50;9.55;;;;;;;;;;4983313;28;20041;-71
2022/03/15 01:09:44;;;;;;;20.75;8.88;;;;;;;;;;4967869;28;20038;-68
2022/03/15 01:12:11;;;;;;;12.77;8.95;;;;;;;;;;4998917;28;20037;-67
2022/03/15 01:14:37;;;;;;;18.73;9.18;;;;;;;;;;4967617;28;20038;-69
2022/03/15 01:17:03;;;;;;;17.88;9.25;;;;;;;;;;4985870;28;20045;-71
2022/03/15 01:19:29;;;;;;;16.80;9.43;;;;;;;;;;4998450;28;20987;-71
2022/03/15 01:21:55;;;;;;;12.27;8.45;;;;;;;;;;4988228;28;20034;-70
2022/03/15 01:24:21;;;;;;;16.00;8.85;;;;;;;;;;4991783;28;20149;-71
2022/03/15 01:26:47;;;;;;;19.55;9.50;;;;;;;;;;4972664;28;20038;-70
2022/03/15 01:29:13;;;;;;;18.40;9.35;;;;;;;;;;4991981;28;20036;-71
2022/03/15 01:31:39;;;;;;;15.48;9.52;;;;;;;;;;4984857;28;20401;-70
2022/03/15 01:34:05;;;;;;;15.70;9.20;;;;;;;;;;4982539;28;20361;-67
2022/03/15 01:36:32;;;;;;;15.30;9.73;;;;;;;;;;4994461;28;20022;-71
2022/03/15 01:38:58;;;;;;;16.48;8.50;;;;;;;;;;4987933;28;20031;-70
2022/03/15 01:41:25;;;;;;;14.27;9.15;;;;;;;;;;4984625;28;20463;-71
2022/03/15 01:43:50;;;;;;;13.70;8.80;;;;;;;;;;4985270;28;20034;-69
2022/03/15 01:46:16;;;;;;;20.75;10.02;;;;;;;;;;4969765;28;20072;-67
2022/03/15 01:48:42;;;;;;;16.52;9.07;;;;;;;;;;4982506;28;20105;-70
2022/03/15 01:51:09;;;;;;;15.60;8.65;;;;;;;;;;4982968;28;20864;-68
2022/03/15 01:53:37;;;;;;;11.35;7.90;;;;;;;;;;4967662;28;20048;-70
2022/03/15 01:56:05;;;;;;;15.00;8.48;;;;;;;;;;4978307;28;20042;-72
2022/03/15 01:58:30;;;;;;;14.27;8.52;;;;;;;;;;4984702;28;20034;-71
2022/03/15 02:01:00;;;;;;;13.43;8.38;;;;;;;;;;4976806;28;20467;-69
2022/03/15 02:03:25;;;;;;;13.00;8.82;;;;;;;;;;4980111;28;20479;-70
2022/03/15 02:05:51;;;;;;;16.52;8.73;;;;;;;;;;4981762;28;20069;-69
2022/03/15 02:08:17;;;;;;;14.93;9.27;;;;;;;;;;4987421;28;20038;-69
2022/03/15 02:10:43;;;;;;;12.10;7.88;;;;;;;;;;4981919;28;20399;-71
2022/03/15 02:13:10;;;;;;;14.05;8.25;;;;;;;;;;4982247;28;20495;-70
2022/03/15 02:15:35;;;;;;;11.25;7.93;;;;;;;;;;4982160;28;20041;-70
2022/03/15 02:18:01;;;;;;;14.35;8.60;;;;;;;;;;4980324;28;20038;-66
2022/03/15 02:20:27;;;;;;;15.35;9.30;;;;;;;;;;4982257;28;20038;-71
2022/03/15 02:22:52;;;;;;;14.10;8.75;;;;;;;;;;4982537;28;20033;-70
2022/03/15 02:25:18;;;;;;;14.05;9.15;;;;;;;;;;4982584;28;20269;-70
2022/03/15 02:27:44;;;;;;;13.75;8.70;;;;;;;;;;4982028;28;20038;-70
2022/03/15 02:30:10;;;;;;;12.73;8.50;;;;;;;;;;4981622;28;20045;-71
2022/03/15 02:32:36;;;;;;;12.80;8.68;;;;;;;;;;4982159;28;20049;-69
2022/03/15 02:35:02;;;;;;;16.20;9.82;;;;;;;;;;4982437;28;20042;-70
2022/03/15 02:37:28;;;;;;;12.77;8.27;;;;;;;;;;4980883;28;20034;-69
2022/03/15 02:39:53;;;;;;;13.73;8.63;;;;;;;;;;4978475;28;20033;-70
2022/03/15 02:42:19;;;;;;;13.35;8.95;;;;;;;;;;4981758;28;20026;-71
2022/03/15 02:44:45;;;;;;;13.38;8.68;;;;;;;;;;4981897;28;20856;-70
2022/03/15 02:47:10;;;;;;;13.43;8.95;;;;;;;;;;4982115;28;20084;-68
2022/03/15 02:49:36;;;;;;;14.20;8.80;;;;;;;;;;4985280;28;20032;-72
2022/03/15 02:52:02;;;;;;;14.50;8.82;;;;;;;;;;4990686;28;20049;-71
2022/03/15 02:54:28;;;;;;;13.13;8.75;;;;;;;;;;4981807;28;20026;-71
2022/03/15 02:56:54;;;;;;;15.60;9.88;;;;;;;;;;4981705;28;20120;-70
2022/03/15 02:59:20;;;;;;;21.58;10.02;;;;;;;;;;4981595;28;20077;-67
2022/03/15 03:01:47;;;;;;;16.52;9.30;;;;;;;;;;4981084;28;20062;-71
2022/03/15 03:04:14;;;;;;;17.25;9.35;;;;;;;;;;4982088;28;20038;-70
2022/03/15 03:06:42;;;;;;;11.98;8.50;;;;;;;;;;4982241;28;20153;-70
2022/03/15 03:09:09;;;;;;;13.82;8.93;;;;;;;;;;4981772;28;20034;-68
2022/03/15 03:11:35;;;;;;;15.35;9.70;;;;;;;;;;4981142;28;20056;-66
2022/03/15 03:14:00;;;;;;;14.07;8.90;;;;;;;;;;4981703;28;20034;-70
2022/03/15 03:16:29;;;;;;;13.32;8.55;;;;;;;;;;4981822;28;20084;-69
2022/03/15 03:18:58;;;;;;;14.93;8.98;;;;;;;;;;4981477;28;20042;-70
2022/03/15 03:21:27;;;;;;;15.40;9.02;;;;;;;;;;4981220;28;20038;-68
2022/03/15 03:23:53;;;;;;;15.40;10.15;;;;;;;;;;4987212;28;20030;-70
2022/03/15 03:26:24;;;;;;;21.85;9.88;;;;;;;;;;4981484;28;20105;-68
2022/03/15 03:28:50;;;;;;;14.88;9.77;;;;;;;;;;4981148;28;20664;-71
2022/03/15 03:31:16;;;;;;;13.90;9.02;;;;;;;;;;4981143;28;20049;-69
2022/03/15 03:33:43;;;;;;;13.18;8.45;;;;;;;;;;4980984;28;20100;-70
2022/03/15 03:36:10;;;;;;;11.63;8.65;;;;;;;;;;4982182;28;20030;-68
2022/03/15 03:38:37;;;;;;;14.52;9.82;;;;;;;;;;4965273;28;20046;-69
2022/03/15 03:41:04;;;;;;;14.95;10.68;;;;;;;;;;4985856;28;20111;-71
2022/03/15 03:43:29;;;;;;;13.75;9.73;;;;;;;;;;4987036;28;20046;-68
2022/03/15 03:45:56;;;;;;;15.18;9.88;;;;;;;;;;4991561;28;20029;-71
2022/03/15 03:48:23;;;;;;;13.50;9.15;;;;;;;;;;4985483;28;20111;-70
2022/03/15 03:50:50;;;;;;;17.75;10.82;;;;;;;;;;4985795;28;20057;-70
2022/03/15 03:53:16;;;;;;;14.68;9.60;;;;;;;;;;4985756;28;20046;-69
2022/03/15 03:55:41;;;;;;;13.85;8.80;;;;;;;;;;4984654;28;20038;-71
2022/03/15 03:58:07;;;;;;;16.80;9.25;;;;;;;;;;4985702;28;20026;-70
2022/03/15 04:00:32;;;;;;;13.88;8.50;;;;;;;;;;4978840;28;20038;-71
2022/03/15 04:03:00;;;;;;;12.38;9.10;;;;;;;;;;4985429;28;20080;-69
2022/03/15 04:05:27;;;;;;;12.75;8.20;;;;;;;;;;4992901;28;20049;-70
2022/03/15 04:07:54;;;;;;;15.10;8.30;;;;;;;;;;4976518;28;20034;-70
2022/03/15 04:10:22;;;;;;;11.23;7.88;;;;;;;;;;4984978;28;20030;-70
2022/03/15 04:12:47;;;;;;;10.45;8.07;;;;;;;;;;4984853;28;20030;-71
2022/03/15 04:15:13;;;;;;;11.48;7.60;;;;;;;;;;4985010;28;20230;-69
2022/03/15 04:17:39;;;;;;;11.10;7.50;;;;;;;;;;4986839;28;20084;-66
2022/03/15 04:20:05;;;;;;;11.07;7.78;;;;;;;;;;4987240;28;20162;-72
2022/03/15 04:22:31;;;;;;;11.75;7.50;;;;;;;;;;4986719;28;20553;-71
2022/03/15 04:24:56;;;;;;;13.07;7.65;;;;;;;;;;4985136;28;20038;-72
2022/03/15 04:27:22;;;;;;;11.23;7.75;;;;;;;;;;4985468;28;20410;-70
2022/03/15 04:29:48;;;;;;;10.35;7.63;;;;;;;;;;4990123;28;20398;-70
2022/03/15 04:32:14;;;;;;;9.80;6.57;;;;;;;;;;4984449;28;20038;-70
2022/03/15 04:34:39;;;;;;;14.75;8.00;;;;;;;;;;4985277;28;20125;-71
2022/03/15 04:37:05;;;;;;;31.17;13.25;;;;;;;;;;4984340;28;20042;-67
2022/03/15 04:39:30;;;;;;;26.05;13.20;;;;;;;;;;4981859;28;20506;-71
2022/03/15 04:41:56;;;;;;;18.45;9.30;;;;;;;;;;4984187;28;20069;-69
2022/03/15 04:44:22;;;;;;;15.82;8.80;;;;;;;;;;4984116;28;20030;-71
2022/03/15 04:46:48;;;;;;;13.93;8.23;;;;;;;;;;4984987;28;20054;-71
2022/03/15 04:49:13;;;;;;;15.10;8.10;;;;;;;;;;4987106;28;20388;-71
2022/03/15 04:51:39;;;;;;;16.92;8.95;;;;;;;;;;4995503;28;20031;-68
2022/03/15 04:54:04;;;;;;;21.13;8.70;;;;;;;;;;4982450;28;20407;-68
2022/03/15 04:56:30;;;;;;;11.35;8.05;;;;;;;;;;4993392;28;20058;-70
2022/03/15 04:58:55;;;;;;;13.40;8.80;;;;;;;;;;4985009;28;20423;-70
2022/03/15 05:01:21;;;;;;;11.38;8.48;;;;;;;;;;4986401;28;20038;-70
2022/03/15 05:03:46;;;;;;;14.80;9.23;;;;;;;;;;4991345;28;20109;-70
2022/03/15 05:06:11;;;;;;;13.40;8.85;;;;;;;;;;4970379;28;20034;-68
2022/03/15 05:08:37;;;;;;;12.70;8.63;;;;;;;;;;4991976;28;20506;-70
2022/03/15 05:11:06;;;;;;;12.68;8.77;;;;;;;;;;4989801;28;20487;-69
2022/03/15 05:13:37;;;;;;;12.38;8.68;;;;;;;;;;4990736;28;20124;-70
2022/03/15 05:16:03;;;;;;;14.27;9.02;;;;;;;;;;4989647;28;20091;-69
2022/03/15 05:18:29;;;;;;;12.68;7.55;;;;;;;;;;4991255;28;20886;-69
2022/03/15 05:20:55;;;;;;;14.40;8.05;;;;;;;;;;4983391;28;20037;-69
2022/03/15 05:23:21;;;;;;;14.55;8.70;;;;;;;;;;4982487;28;20030;-70
2022/03/15 05:25:46;;;;;;;13.98;9.25;;;;;;;;;;4983330;28;20034;-68
2022/03/15 05:28:12;;;;;;;14.20;8.15;;;;;;;;;;4983409;28;20046;-70
2022/03/15 05:30:38;;;;;;;12.18;7.97;;;;;;;;;;4984459;28;20038;-68
2022/03/15 05:33:04;;;;;;;21.98;8.95;;;;;;;;;;4986220;28;20038;-70
2022/03/15 05:35:33;;;;;;;19.00;8.88;;;;;;;;;;4984056;28;21134;-68
2022/03/15 05:37:58;;;;;;;11.48;8.35;;;;;;;;;;4996501;28;20035;-66
2022/03/15 05:40:25;;;;;;;14.85;8.88;;;;;;;;;;5005453;28;20042;-66
2022/03/15 05:42:50;;;;;;;14.82;9.73;;;;;;;;;;4995884;28;20124;-68
2022/03/15 05:45:16;;;;;;;14.45;9.02;;;;;;;;;;4995890;28;20133;-70
2022/03/15 05:47:41;;;;;;;13.90;7.90;;;;;;;;;;4993458;28;20027;-67
2022/03/15 05:50:08;;;;;;;16.35;9.00;;;;;;;;;;4993881;28;20033;-68
2022/03/15 05:52:33;;;;;;;15.43;7.97;;;;;;;;;;4988281;28;20038;-70
2022/03/15 05:54:59;;;;;;;12.02;8.52;;;;;;;;;;4989039;28;20440;-69
2022/03/15 05:57:24;;;;;;;11.68;8.30;;;;;;;;;;4991785;28;20153;-69
2022/03/15 05:59:50;;;;;;;12.18;8.18;;;;;;;;;;4988160;28;20111;-68
2022/03/15 06:02:15;;;;;;;14.00;8.80;;;;;;;;;;4990949;28;20034;-67
2022/03/15 06:04:41;;;;;;;13.32;8.27;;;;;;;;;;4995173;28;20042;-68
2022/03/15 06:07:06;;;;;;;15.60;8.55;;;;;;;;;;4991003;28;20033;-67
2022/03/15 06:09:32;;;;;;;14.45;8.98;;;;;;;;;;4988902;28;20048;-66
2022/03/15 06:11:57;;;;;;;14.40;9.05;;;;;;;;;;4988951;28;20041;-65
2022/03/15 06:14:23;;;;;;;11.90;8.20;;;;;;;;;;4987292;28;20041;-67
2022/03/15 06:16:49;;;;;;;12.00;8.43;;;;;;;;;;4980848;28;20046;-70
2022/03/15 06:19:15;;;;;;;15.85;9.00;;;;;;;;;;4980061;28;20053;-68
2022/03/15 06:21:40;;;;;;;13.30;8.73;;;;;;;;;;4979908;28;20038;-69
2022/03/15 06:24:07;;;;;;;11.65;8.02;;;;;;;;;;4963911;28;20057;-69
2022/03/15 06:26:33;;;;;;;12.82;8.07;;;;;;;;;;4987546;28;20483;-70
2022/03/15 06:28:59;;;;;;;16.27;7.85;;;;;;;;;;4989698;28;20049;-66
2022/03/15 06:31:25;;;;;;;13.90;8.02;;;;;;;;;;4981126;28;20388;-66
2022/03/15 06:33:50;;;;;;;11.90;7.85;;;;;;;;;;4985211;28;20554;-69
2022/03/15 06:36:16;;;;;;;13.93;8.93;;;;;;;;;;4962886;28;20121;-69
2022/03/15 06:38:41;;;;;;;12.57;7.88;;;;;;;;;;4985246;28;20136;-70
2022/03/15 06:41:10;;;;;;;10.50;7.57;;;;;;;;;;4981113;28;20081;-69
2022/03/15 06:43:36;;;;;;;10.30;7.95;;;;;;;;;;4982067;28;20544;-69
2022/03/15 06:46:02;;;;;;;10.45;7.40;;;;;;;;;;4982699;28;20125;-69
2022/03/15 06:48:27;;;;;;;15.38;7.32;;;;;;;;;;4987975;28;20073;-69
2022/03/15 06:50:54;;;;;;;11.75;7.47;;;;;;;;;;4982161;28;20436;-69
2022/03/15 06:53:20;;;;;;;11.98;7.60;;;;;;;;;;4982312;28;20046;-68
2022/03/15 06:55:46;;;;;;;12.20;7.95;;;;;;;;;;4982167;28;20041;-69
2022/03/15 06:58:11;;;;;;;11.82;7.32;;;;;;;;;;4981757;28;20030;-69
2022/03/15 07:00:36;;;;;;;11.70;7.45;;;;;;;;;;4981859;28;20418;-69
2022/03/15 07:03:03;;;;;;;12.77;7.70;;;;;;;;;;4982069;28;20076;-68
2022/03/15 07:05:28;;;;;;;14.43;7.90;;;;;;;;;;4981986;28;20133;-68
2022/03/15 07:07:53;;;;;;;12.10;7.55;;;;;;;;;;4982201;28;20550;-68
2022/03/15 07:10:20;;;;;;;11.88;7.35;;;;;;;;;;4987696;28;20038;-69
2022/03/15 07:12:47;;;;;;;12.45;8.15;;;;;;;;;;4982076;28;20555;-68
2022/03/15 07:15:13;;;;;;;12.60;8.35;;;;;;;;;;4982253;28;20085;-68
2022/03/15 07:17:48;;;;;;;13.93;8.13;;;;;;;;;;4981729;28;20060;-69
2022/03/15 07:20:14;;;;;;;14.80;8.32;;;;;;;;;;4980800;28;20042;-68
2022/03/15 07:22:39;;;;;;;15.00;7.88;;;;;;;;;;4991876;28;20037;-67
2022/03/15 07:25:05;;;;;;;10.80;7.25;;;;;;;;;;4985544;28;20124;-69
2022/03/15 07:27:30;;;;;;;13.07;7.15;;;;;;;;;;4988100;28;20026;-68
2022/03/15 07:29:56;;;;;;;10.35;7.32;;;;;;;;;;4981972;28;20502;-68
2022/03/15 07:32:21;;;;;;;10.57;7.55;;;;;;;;;;4980378;28;20046;-68
2022/03/15 07:34:49;;;;;;;14.25;7.13;;;;;;;;;;4989828;28;20034;-68
2022/03/15 07:37:15;;;;;;;10.20;7.15;;;;;;;;;;4982032;28;20043;-68
2022/03/15 07:39:40;;;;;;;11.93;6.97;;;;;;;;;;4981647;28;20410;-68
2022/03/15 07:42:06;;;;;;;12.02;7.18;;;;;;;;;;4981620;28;20026;-69
2022/03/15 07:44:33;;;;;;;11.23;6.53;;;;;;;;;;4973067;28;20487;-69
2022/03/15 07:46:58;;;;;;;8.30;6.43;;;;;;;;;;4981672;28;20093;-69
2022/03/15 07:49:24;;;;;;;9.15;5.95;;;;;;;;;;4981926;28;20154;-68
2022/03/15 07:51:49;;;;;;;8.00;6.20;;;;;;;;;;4981492;28;20407;-69
2022/03/15 07:54:16;;;;;;;11.25;6.50;;;;;;;;;;4987233;28;20048;-69
2022/03/15 07:56:43;;;;;;;12.15;6.18;;;;;;;;;;4981421;28;20038;-68
2022/03/15 07:59:09;;;;;;;12.32;6.70;;;;;;;;;;4982058;28;20038;-68
2022/03/15 08:01:35;;;;;;;13.30;6.90;;;;;;;;;;4981481;28;20479;-68
2022/03/15 08:04:01;;;;;;;10.40;6.15;;;;;;;;;;4981719;28;20038;-68
2022/03/15 08:06:27;;;;;;;9.18;6.18;;;;;;;;;;4987053;28;20042;-68
2022/03/15 08:08:57;;;;;;;10.68;5.93;;;;;;;;;;4987608;28;20037;-68
2022/03/15 08:11:26;;;;;;;11.63;6.60;;;;;;;;;;4981636;28;20030;-68
2022/03/15 08:13:55;;;;;;;12.45;6.47;;;;;;;;;;4981699;28;20034;-68
2022/03/15 08:16:22;;;;;;;11.48;6.93;;;;;;;;;;4987443;28;20109;-68
2022/03/15 08:18:49;;;;;;;8.90;5.97;;;;;;;;;;4981671;28;20069;-68
2022/03/15 08:21:15;;;;;;;12.02;5.57;;;;;;;;;;4984192;28;20097;-68
2022/03/15 08:23:40;;;;;;;11.40;6.15;;;;;;;;;;4981597;28;20057;-69
2022/03/15 08:26:06;;;;;;;11.27;5.93;;;;;;;;;;4989056;28;20029;-68
2022/03/15 08:28:32;;;;;;;8.40;5.47;;;;;;;;;;4984624;28;20038;-68
2022/03/15 08:30:59;;;;;;;8.27;5.40;;;;;;;;;;4984819;28;20041;-68
2022/03/15 08:33:25;;;;;;;6.07;5.00;;;;;;;;;;4988282;28;20547;-68
2022/03/15 08:35:51;;;;;;;6.18;5.00;;;;;;;;;;4985290;28;20502;-68
2022/03/15 08:38:17;;;;;;;7.03;5.07;;;;;;;;;;4988864;28;20070;-68
2022/03/15 08:40:42;;;;;;;9.13;4.63;;;;;;;;;;4984512;28;20079;-68
2022/03/15 08:43:08;;;;;;;9.05;6.32;;;;;;;;;;4984571;28;20030;-68
2022/03/15 08:45:34;;;;;;;11.70;6.85;;;;;;;;;;4985243;28;20072;-68
2022/03/15 08:48:00;;;;;;;11.93;6.30;;;;;;;;;;4987533;28;20030;-68
2022/03/15 08:50:26;;;;;;;8.50;6.13;;;;;;;;;;4983821;28;20038;-68
2022/03/15 08:52:52;;;;;;;10.00;5.95;;;;;;;;;;4985203;28;20475;-68
2022/03/15 08:55:24;;;;;;;16.05;6.05;;;;;;;;;;4984658;28;20042;-68
2022/03/15 08:57:49;;;;;;;11.38;5.82;;;;;;;;;;4984487;28;20121;-68
2022/03/15 09:00:15;;;;;;;9.02;5.82;;;;;;;;;;4991469;28;20132;-68
2022/03/15 09:02:41;;;;;;;12.40;5.93;;;;;;;;;;4984428;28;20041;-68
2022/03/15 09:05:07;;;;;;;6.82;5.00;;;;;;;;;;4987996;28;20042;-69
2022/03/15 09:07:33;;;;;;;14.57;6.22;;;;;;;;;;4987866;28;20038;-68
2022/03/15 09:09:59;;;;;;;7.55;5.80;;;;;;;;;;4984208;28;20034;-68
2022/03/15 09:12:24;;;;;;;8.57;6.07;;;;;;;;;;4989324;28;20621;-68
2022/03/15 09:14:50;;;;;;;8.20;5.50;;;;;;;;;;4984457;28;20038;-68
2022/03/15 09:17:16;;;;;;;16.20;5.80;;;;;;;;;;4967116;28;20113;-68
2022/03/15 09:19:42;;;;;;;7.68;5.35;;;;;;;;;;4984024;28;20491;-68
2022/03/15 09:22:09;;;;;;;10.18;5.57;;;;;;;;;;4990155;28;20125;-68
2022/03/15 09:25:24;;;;;;;6.88;5.22;;;;;;;;;;4982972;28;20473;-68
2022/03/15 09:27:50;;;;;;;7.95;5.70;;;;;;;;;;4968621;28;20034;-68
2022/03/15 09:30:16;;;;;;;7.78;5.13;;;;;;;;;;4992671;28;20407;-68
2022/03/15 09:32:41;;;;;;;10.90;5.55;;;;;;;;;;4986721;28;20086;-68
2022/03/15 09:35:07;;;;;;;10.63;5.32;;;;;;;;;;4985902;28;21010;-68
2022/03/15 09:37:33;;;;;;;8.88;5.53;;;;;;;;;;4983770;28;20471;-68
2022/03/15 09:39:58;;;;;;;9.82;5.88;;;;;;;;;;4990744;28;20569;-68
2022/03/15 09:42:28;;;;;;;14.23;5.60;;;;;;;;;;4987604;28;20038;-70
2022/03/15 09:44:57;;;;;;;13.13;5.95;;;;;;;;;;4989579;28;20062;-68
2022/03/15 09:47:28;;;;;;;6.05;5.20;;;;;;;;;;4986448;28;20480;-69
2022/03/15 09:49:54;;;;;;;8.10;5.55;;;;;;;;;;4983998;28;20530;-70
2022/03/15 09:52:20;;;;;;;8.18;4.90;;;;;;;;;;4983056;28;20495;-70
2022/03/15 09:54:47;;;;;;;11.48;4.93;;;;;;;;;;4983321;28;20044;-69
2022/03/15 09:57:12;;;;;;;9.60;4.75;;;;;;;;;;4983021;28;20038;-69
2022/03/15 09:59:38;;;;;;;8.55;5.40;;;;;;;;;;4983514;28;20049;-70
2022/03/15 10:02:03;;;;;;;11.23;5.35;;;;;;;;;;4983631;28;21090;-70
2022/03/15 10:04:29;;;;;;;8.60;5.07;;;;;;;;;;4983248;28;20053;-70
2022/03/15 10:06:56;;;;;;;8.10;5.43;;;;;;;;;;4989080;28;20088;-70
2022/03/15 10:09:22;;;;;;;6.82;4.57;;;;;;;;;;4990879;28;20052;-70
2022/03/15 10:11:48;;;;;;;8.27;4.63;;;;;;;;;;4983007;28;20042;-70
2022/03/15 10:14:14;;;;;;;12.85;5.53;;;;;;;;;;4983119;28;20054;-70
2022/03/15 10:16:41;;;;;;;11.50;4.93;;;;;;;;;;4988669;28;20041;-70
2022/03/15 10:19:09;;;;;;;7.60;4.70;;;;;;;;;;4984339;28;20820;-70
2022/03/15 10:22:10;;;;;;;5.57;4.65;;;;;;;;;;4985795;28;20038;-70
2022/03/15 10:24:38;;;;;;;10.10;4.95;;;;;;;;;;4935848;28;20117;-69
2022/03/15 10:27:06;;;;;;;8.25;5.15;;;;;;;;;;4982793;28;20571;-68
2022/03/15 10:29:34;;;;;;;12.70;4.10;;;;;;;;;;4982140;28;20073;-68
2022/03/15 10:32:02;;;;;;;10.25;4.50;;;;;;;;;;4982492;28;20039;-68
2022/03/15 10:34:31;;;;;;;10.82;4.90;;;;;;;;;;4983073;28;20137;-68
2022/03/15 10:36:56;;;;;;;8.77;4.82;;;;;;;;;;4990422;28;20034;-68
2022/03/15 10:39:24;;;;;;;6.97;4.85;;;;;;;;;;4988082;28;20037;-69
2022/03/15 10:41:55;;;;;;;12.88;4.55;;;;;;;;;;4982076;28;20034;-69
2022/03/15 10:44:23;;;;;;;8.10;4.05;;;;;;;;;;4982655;28;20474;-67
2022/03/15 10:49:54;;;;;;;12.10;4.07;;;;;;;;;;5727817;22;20064;-69
2022/03/15 10:52:36;;;;;;;4.50;3.40;;;;;;;;;;5020950;28;20037;-69
2022/03/15 10:55:14;;;;;;;6.45;4.10;;;;;;;;;;5021124;28;20441;-69
2022/03/15 10:57:54;;;;;;;5.60;3.83;;;;;;;;;;5021039;28;20029;-69
2022/03/15 11:00:25;;;;;;;7.55;3.90;;;;;;;;;;5020303;28;20044;-69
2022/03/15 11:02:52;;;;;;;6.50;3.67;;;;;;;;;;5021123;28;21131;-69
2022/03/15 11:05:29;;;;;;;6.50;4.18;;;;;;;;;;5020787;28;20041;-69
2022/03/15 11:07:55;;;;;;;8.88;4.07;;;;;;;;;;5021496;28;20044;-69
2022/03/15 11:10:20;;;;;;;7.18;4.30;;;;;;;;;;5021378;28;20426;-69
2022/03/15 11:12:57;;;;;;;6.93;4.40;;;;;;;;;;5020073;28;21035;-69
2022/03/15 11:15:30;;;;;;;10.65;4.18;;;;;;;;;;5021095;28;20057;-68
2022/03/15 11:18:02;;;;;;;6.18;4.22;;;;;;;;;;5021284;28;20409;-69
2022/03/15 11:20:30;;;;;;;12.80;4.10;;;;;;;;;;5020974;28;20030;-68
2022/03/15 11:23:00;;;;;;;6.88;3.90;;;;;;;;;;5019978;28;20037;-69
2022/03/15 11:25:35;;;;;;;7.95;3.47;;;;;;;;;;5020709;28;20049;-68
2022/03/15 11:28:04;;;;;;;7.13;4.00;;;;;;;;;;5019799;28;20080;-69
2022/03/15 11:30:30;;;;;;;5.03;4.10;;;;;;;;;;5020080;28;20486;-68
2022/03/15 11:32:55;;;;;;;4.95;3.83;;;;;;;;;;5020719;28;20087;-68
2022/03/15 11:35:23;;;;;;;5.68;4.03;;;;;;;;;;5019858;28;20455;-68
2022/03/15 11:37:52;;;;;;;6.53;4.15;;;;;;;;;;5020918;28;20029;-68
2022/03/15 11:40:19;;;;;;;5.93;3.95;;;;;;;;;;5019948;28;20037;-68
2022/03/15 11:42:47;;;;;;;5.60;4.38;;;;;;;;;;5020256;28;20026;-68
2022/03/15 11:45:25;;;;;;;12.18;4.63;;;;;;;;;;5018574;28;20802;-69
2022/03/15 11:48:23;;;;;;;7.35;3.88;;;;;;;;;;5020467;28;20041;-69
2022/03/15 11:51:21;;;;;;;6.15;4.00;;;;;;;;;;5020799;28;20037;-69
2022/03/15 11:54:08;;;;;;;10.50;4.47;;;;;;;;;;5020749;28;20552;-69
2022/03/15 11:56:55;;;;;;;12.13;4.78;;;;;;;;;;5020442;28;20441;-69
2022/03/15 11:59:21;;;;;;;7.10;4.32;;;;;;;;;;5020362;28;20033;-70
2022/03/15 12:01:52;;;;;;;9.20;4.55;;;;;;;;;;5023582;28;20087;-70
2022/03/15 12:04:22;;;;;;;7.93;4.75;;;;;;;;;;5024712;28;20068;-69
2022/03/15 12:06:59;;;;;;;8.98;4.68;;;;;;;;;;5024201;28;20505;-70
2022/03/15 12:09:28;;;;;;;6.78;4.60;;;;;;;;;;5024035;28;20458;-70
2022/03/15 12:12:07;;;;;;;10.65;4.88;;;;;;;;;;5006983;28;20030;-69
2022/03/15 12:14:41;;;;;;;12.75;5.28;;;;;;;;;;5024283;28;20045;-70
2022/03/15 12:17:10;;;;;;;9.88;5.75;;;;;;;;;;5023427;28;20116;-70
2022/03/15 12:19:48;;;;;;;9.23;5.47;;;;;;;;;;5023801;28;20045;-70
2022/03/15 12:22:30;;;;;;;10.88;5.72;;;;;;;;;;5024043;28;20132;-70
2022/03/15 12:25:10;;;;;;;;;;;;;;;;;;5022074;28;20112;-69
2022/03/15 12:27:40;;;;;;;7.23;5.70;;;;;;;;;;5022497;28;20577;-69
2022/03/15 12:30:30;;;;;;;11.18;5.43;;;;;;;;;;5025815;28;21232;-70
2022/03/15 12:32:57;;;;;;;13.73;4.88;;;;;;;;;;5022145;28;20048;-69
2022/03/15 12:35:28;;;;;;;13.35;6.20;;;;;;;;;;5022748;28;20045;-69
2022/03/15 12:38:11;;;;;;;8.88;5.60;;;;;;;;;;5022905;28;20069;-69
2022/03/15 12:40:43;;;;;;;10.02;4.80;;;;;;;;;;5019915;28;20037;-69
2022/03/15 12:43:19;;;;;;;34.13;6.88;;;;;;;;;;5022377;28;20048;-69
2022/03/15 12:45:47;;;;;;;11.95;4.72;;;;;;;;;;5022601;28;20041;-70
2022/03/15 12:48:17;;;;;;;11.48;5.38;;;;;;;;;;5022360;28;20041;-70
2022/03/15 12:50:43;;;;;;;7.97;5.40;;;;;;;;;;5021179;28;20037;-69
2022/03/15 12:53:12;;;;;;;6.63;5.00;;;;;;;;;;5022232;28;20029;-70
2022/03/15 12:55:41;;;;;;;8.27;4.75;;;;;;;;;;5022396;28;20080;-70
2022/03/15 12:58:09;;;;;;;14.18;5.35;;;;;;;;;;5021919;28;20043;-70
2022/03/15 13:00:43;;;;;;;9.45;5.20;;;;;;;;;;5021654;28;20037;-70
2022/03/15 13:03:10;;;;;;;9.02;5.20;;;;;;;;;;5023152;28;20033;-70
2022/03/15 13:05:44;;;;;;;6.63;5.10;;;;;;;;;;5020623;28;21305;-69
2022/03/15 13:08:11;;;;;;;8.93;5.40;;;;;;;;;;5022277;28;20102;-68
2022/03/15 13:10:46;;;;;;;7.53;5.07;;;;;;;;;;5021690;28;20497;-68
2022/03/15 13:13:13;;;;;;;7.03;4.97;;;;;;;;;;5021006;28;20492;-69
2022/03/15 13:15:48;;;;;;;7.15;4.93;;;;;;;;;;5020816;28;20041;-69
2022/03/15 13:22:04;;;;;;;6.97;4.82;;;;;;;;;;5023042;28;20039;-69
2022/03/15 13:24:36;;;;;;;8.65;5.07;;;;;;;;;;5021019;28;20025;-68
2022/03/15 13:27:04;;;;;;;12.57;4.85;;;;;;;;;;5003695;28;20539;-69
2022/03/15 13:29:31;;;;;;;12.10;5.20;;;;;;;;;;5021744;28;20037;-69
2022/03/15 13:31:59;;;;;;;11.60;4.82;;;;;;;;;;5021880;28;20041;-66
2022/03/15 13:34:29;;;;;;;14.88;5.05;;;;;;;;;;5020414;28;20033;-68
2022/03/15 13:37:07;;;;;;;11.85;5.07;;;;;;;;;;5022324;28;20478;-69
2022/03/15 13:39:36;;;;;;;9.88;4.53;;;;;;;;;;5022661;28;20048;-69
2022/03/15 13:42:02;;;;;;;13.07;4.88;;;;;;;;;;5022331;28;20056;-68
2022/03/15 13:44:32;;;;;;;7.45;4.88;;;;;;;;;;5022249;28;20116;-68
2022/03/15 13:47:13;;;;;;;10.52;4.95;;;;;;;;;;5021973;28;20136;-68
2022/03/15 13:49:41;;;;;;;13.77;5.57;;;;;;;;;;5021489;28;20141;-67
2022/03/15 13:52:08;;;;;;;16.83;5.45;;;;;;;;;;5021824;28;20035;-67
2022/03/15 13:54:50;;;;;;;11.38;5.03;;;;;;;;;;5024367;28;20482;-67
2022/03/15 13:57:25;;;;;;;13.73;5.72;;;;;;;;;;5022147;28;20053;-68
2022/03/15 14:00:00;;;;;;;7.10;5.63;;;;;;;;;;5022190;28;20883;-68
2022/03/15 14:02:26;;;;;;;10.82;5.47;;;;;;;;;;5021822;28;20049;-68
2022/03/15 14:05:00;;;;;;;10.27;5.97;;;;;;;;;;5020403;28;20047;-68
2022/03/15 14:07:26;;;;;;;9.02;5.18;;;;;;;;;;5019640;28;20046;-68
2022/03/15 14:10:04;;;;;;;7.65;4.72;;;;;;;;;;5020935;28;20032;-68
2022/03/15 14:12:33;;;;;;;6.65;4.80;;;;;;;;;;5020388;28;20041;-68
2022/03/15 14:15:07;;;;;;;8.68;5.07;;;;;;;;;;5020653;28;20479;-68
2022/03/15 14:17:48;;;;;;;7.93;5.00;;;;;;;;;;5020745;28;20061;-68
2022/03/15 14:20:17;;;;;;;9.75;5.75;;;;;;;;;;5019525;28;20060;-68
2022/03/15 14:22:54;;;;;;;9.63;5.32;;;;;;;;;;5020727;28;20537;-68
2022/03/15 14:25:34;;;;;;;14.75;6.10;;;;;;;;;;5021710;28;20087;-68
2022/03/15 14:28:05;;;;;;;7.28;5.22;;;;;;;;;;5003437;28;20033;-68
2022/03/15 14:30:32;;;;;;;9.43;5.50;;;;;;;;;;5020963;28;20099;-68
2022/03/15 14:33:06;;;;;;;7.60;5.60;;;;;;;;;;5021084;28;20449;-68
2022/03/15 14:35:36;;;;;;;8.75;5.55;;;;;;;;;;5020907;28;20041;-68
2022/03/15 14:38:15;;;;;;;12.10;6.00;;;;;;;;;;5019282;28;20079;-69
2022/03/15 14:40:54;;;;;;;10.75;5.55;;;;;;;;;;5019488;28;20072;-68
2022/03/15 14:43:26;;;;;;;12.90;5.97;;;;;;;;;;5019735;28;20101;-68
2022/03/15 14:45:54;;;;;;;;;;;;;;;;;;5020390;28;20033;-68